Flight Track Log - Related Links

Times and Time Zones

All times are in EDT time to prevent confusion due to time zone crossing. See the ASA870 flight status page for this flight to view local times or setup timezone preferences in your user account.

Time Position Orientation Groundspeed Altitude Reporting Facility
EDT Latitude Longitude Course Direction KTS MPH feet Rate Location/Type
Fri 06:25:15 PM 61.0395 -150.1272 318° Northwest  Level FlightAware Approximate
Fri 06:26:15 PM 60.9327 -150.2340 345° North  Level FlightAware Approximate
Fri 06:27:15 PM 60.8151 -150.2664 352° North  Level FlightAware Approximate
Fri 06:28:15 PM 60.7394 -150.4275 North  Level FlightAware Approximate
Fri 06:28:45 PM 61.1667 -150.3667 206° Southwest 270 311 9,300  Level Anchorage Center
Fri 06:29:46 PM 61.1167 -150.4167 196° South 280 322 10,900 2,132 Climbing Anchorage Center
Fri 06:30:46 PM 61.0333 -150.4667 201° Southwest 310 357 13,600 2,450 Climbing Anchorage Center
Fri 06:31:46 PM 60.9500 -150.5333 198° South 330 380 15,800 2,132 Climbing Anchorage Center
Fri 06:32:47 PM 60.8500 -150.6000 201° Southwest 330 380 17,900 2,083 Climbing Anchorage Center
Fri 06:33:47 PM 60.7667 -150.6667 201° Southwest 340 391 20,000 2,000 Climbing Anchorage Center
Fri 06:34:47 PM 60.6833 -150.7333 202° Southwest 360 414 21,900 1,785 Climbing Anchorage Center
Fri 06:35:48 PM 60.5833 -150.8167 198° South 360 414 23,600 1,091 Climbing Anchorage Center
Fri 06:36:48 PM 60.4833 -150.8833 199° South 380 437 24,100 650 Climbing Anchorage Center
Fri 06:37:48 PM 60.3667 -150.9667 202° Southwest 410 472 24,900 893 Climbing Anchorage Center
Fri 06:38:49 PM 60.2667 -151.0500 200° South 420 483 25,900 1,190 Climbing Anchorage Center
Fri 06:39:49 PM 60.1500 -151.1333 200° South 430 495 27,300 1,240 Climbing Anchorage Center
Fri 06:40:50 PM 60.0333 -151.2167 200° South 440 506 28,400 1,289 Climbing Anchorage Center
Fri 06:41:50 PM 59.9167 -151.3000 196° South 440 506 29,900 1,250 Climbing Anchorage Center
Fri 06:42:50 PM 59.8000 -151.3667 200° South 440 506 30,900 1,091 Climbing Anchorage Center
Fri 06:43:51 PM 59.6833 -151.4500 176° South 430 495 32,100 1,041 Climbing Anchorage Center
Fri 06:44:51 PM 59.5667 -151.4333 176° South 440 506 33,000 850 Climbing Anchorage Center
Fri 06:45:51 PM 59.4500 -151.4167 176° South 440 506 33,800 793 Climbing Anchorage Center
Fri 06:46:52 PM 59.3167 -151.4000 180° South 430 495 34,600 595 Climbing Anchorage Center
Fri 06:47:52 PM 59.2000 -151.4000 176° South 430 495 35,000 200 Climbing Anchorage Center
Fri 06:48:52 PM 59.0833 -151.3833 177° South 430 495 35,000  Level Anchorage Center
Fri 06:49:53 PM 58.9333 -151.3667 176° South 430 495 35,000  Level Anchorage Center
Fri 06:50:53 PM 58.8167 -151.3500 176° South 430 495 35,000  Level Anchorage Center
Fri 06:51:54 PM 58.7000 -151.3333 180° South 430 495 35,000  Level Anchorage Center
Fri 06:52:54 PM 58.5667 -151.3333 176° South 430 495 35,000  Level Anchorage Center
Fri 06:53:54 PM 58.4500 -151.3167 176° South 430 495 35,000  Level Anchorage Center
Fri 06:54:55 PM 58.3333 -151.3000 180° South 430 495 35,000  Level Anchorage Center
Fri 06:55:55 PM 58.2167 -151.3000 176° South 430 495 35,000  Level Anchorage Center
Fri 06:56:56 PM 58.1000 -151.2833 176° South 430 495 35,000  Level Anchorage Center
Fri 06:57:56 PM 57.9667 -151.2667 176° South 440 506 35,000  Level Anchorage Center
Fri 06:58:57 PM 57.8500 -151.2500 176° South 430 495 35,000  Level Anchorage Center
Fri 06:59:57 PM 57.7333 -151.2333 176° South 430 495 35,000  Level Anchorage Center
Fri 07:00:57 PM 57.6000 -151.2167 180° South 440 506 35,000  Level Anchorage Center
Fri 07:01:57 PM 57.4833 -151.2167 180° South 430 495 35,000  Level Anchorage Center
Fri 07:02:58 PM 57.3667 -151.2167 176° South 440 506 35,000  Level Anchorage Center
Fri 07:03:58 PM 57.2333 -151.2000 176° South 440 506 35,000  Level Anchorage Center
Fri 07:04:58 PM 57.1167 -151.1833 178° South 440 506 35,000  Level Anchorage Center
Fri 07:07:00 PM 56.8500 -151.1667 176° South 430 495 35,000  Level Anchorage Center
Fri 07:08:00 PM 56.7333 -151.1500 180° South 440 506 35,000  Level Anchorage Center
Fri 07:09:00 PM 56.6167 -151.1500 177° South 440 506 35,000  Level Anchorage Center
Fri 07:24:25 PM 55.0000 -151.0000 180° South 429 494 35,000  Level Oakland Oceanic (ODAPS)
Fri 08:05:42 PM 50.0000 -151.0000 180° South 429 494 35,000  Level Oakland Oceanic (ODAPS)
Fri 08:48:59 PM 45.0000 -151.0000 189° South 423 487 35,000  Level Oakland Oceanic (ODAPS)
Fri 09:31:53 PM 40.0000 -152.0000 189° South 444 511 35,000 24 Level Oakland Oceanic (ODAPS)
Fri 10:12:31 PM 35.0000 -153.0000 190° South 455 524 37,000 25 Climbing Oakland Oceanic (ODAPS)
Fri 10:52:23 PM 30.0000 -154.0000 205° Southwest 460 529 37,000  Level Oakland Oceanic (ODAPS)
Fri 11:32:18 PM 25.1333 -156.4500 203° Southwest 460 529 37,000  Level Honolulu Center
Fri 11:36:19 PM 24.6667 -156.6667 195° South 460 529 37,000  Level Honolulu Center
Fri 11:37:19 PM 24.5500 -156.7000 193° South 460 529 37,000  Level Honolulu Center
Fri 11:38:20 PM 24.4167 -156.7333 195° South 460 529 37,000  Level Honolulu Center
Fri 11:39:20 PM 24.3000 -156.7667 193° South 460 529 37,000  Level Honolulu Center
Fri 11:40:20 PM 24.1667 -156.8000 195° South 460 529 37,000  Level Honolulu Center
Fri 11:41:21 PM 24.0500 -156.8333 193° South 470 541 37,000  Level Honolulu Center
Fri 11:42:21 PM 23.9167 -156.8667 195° South 460 529 37,000  Level Honolulu Center
Fri 11:43:22 PM 23.8000 -156.9000 193° South 470 541 37,000  Level Honolulu Center
Fri 11:44:21 PM 23.6667 -156.9333 193° South 460 529 37,000  Level Honolulu Center
Fri 11:45:22 PM 23.5333 -156.9667 187° South 470 541 37,000  Level Honolulu Center
Fri 11:46:22 PM 23.4167 -156.9833 193° South 470 541 37,000  Level Honolulu Center
Fri 11:47:22 PM 23.2833 -157.0167 202° Southwest 460 529 37,000  Level Honolulu Center
Fri 11:48:23 PM 23.1667 -157.0667 187° South 470 541 37,000  Level Honolulu Center
Fri 11:49:23 PM 23.0333 -157.0833 195° South 470 541 37,000  Level Honolulu Center
Fri 11:50:24 PM 22.9167 -157.1167 193° South 460 529 37,000 -793 Level Honolulu Center
Fri 11:51:24 PM 22.7833 -157.1500 193° South 460 529 35,400 -2,250 Descending Honolulu Center
Fri 11:52:24 PM 22.6500 -157.1833 195° South 460 529 32,500 -2,550 Descending Honolulu Center
Fri 11:53:24 PM 22.5333 -157.2167 195° South 460 529 30,300 -2,250 Descending Honolulu Center
Fri 11:54:24 PM 22.4167 -157.2500 193° South 450 518 28,000 -2,083 Descending Honolulu Center
Fri 11:55:25 PM 22.2833 -157.2833 189° South 440 506 26,100 -2,033 Descending Honolulu Center
Fri 11:56:25 PM 22.1833 -157.3000 195° South 430 495 23,900 -2,033 Descending Honolulu Center
Fri 11:57:26 PM 22.0667 -157.3333 193° South 400 460 22,000 -1,934 Descending Honolulu Center
Fri 11:58:26 PM 21.9333 -157.3667 197° South 390 449 20,000 -1,884 Descending Honolulu Center
Fri 11:59:27 PM 21.8333 -157.4000 189° South 370 426 18,200 -1,785 Descending Honolulu Center
Sat 12:00:27 AM 21.7333 -157.4167 200° South 360 414 16,400 -1,850 Descending Honolulu Center
Sat 12:01:27 AM 21.6500 -157.4500 189° South 360 414 14,500 -1,884 Descending Honolulu Center
Sat 12:02:28 AM 21.5500 -157.4667 197° South 350 403 12,600 -1,835 Descending Honolulu Center
Sat 12:03:28 AM 21.4500 -157.5000 237° Southwest 340 391 10,800 -1,300 Descending Honolulu Center
Sat 12:04:28 AM 21.4000 -157.5833 231° Southwest 330 380 10,000 -446 Descending Honolulu Center
Sat 12:05:29 AM 21.3500 -157.6500 247° West 310 357 9,900 -397 Descending Honolulu Center
Sat 12:06:29 AM 21.3167 -157.7333 231° Southwest 280 322 9,200 -900 Descending Honolulu Center
Sat 12:07:29 AM 21.2667 -157.8000 255° West 250 288 8,100 -1,150 Descending Honolulu Center
Sat 12:08:29 AM 21.2500 -157.8667 258° West 260 299 6,900 -1,587 Descending Honolulu Center
Sat 12:09:30 AM 21.2333 -157.9500 270° West 260 299 4,900 -1,686 Descending Honolulu Center
Sat 12:10:30 AM 21.2333 -158.0167 290° West 230 265 3,500 -942 Descending Honolulu Center
Sat 12:11:31 AM 21.2500 -158.0667 360° North 160 184 3,000 -595 Descending Honolulu Center
Sat 12:12:31 AM 21.3167 -158.0667 90° East 190 219 2,300 -600 Descending Honolulu Center
Sat 12:13:31 AM 21.3167 -158.0167 90° East 160 184 1,800 -850 Descending Honolulu Center
Sat 12:14:31 AM 21.3167 -157.9667 90° East 150 173 600 -1,200 Descending Honolulu Center

Login

Don't have an account? Register now (free) for customized features, flight alerts, and more!